createdAt,value
2022-10-11T00:01:17.996Z,8.55
2022-10-11T00:03:44.593Z,7.40
2022-10-11T00:06:11.123Z,7.60
2022-10-11T00:08:37.670Z,7.63
2022-10-11T00:11:06.771Z,7.03
2022-10-11T00:13:33.465Z,6.57
2022-10-11T00:16:00.014Z,7.78
2022-10-11T00:18:26.805Z,6.53
2022-10-11T00:21:06.876Z,7.13
2022-10-11T00:23:33.996Z,6.88
2022-10-11T00:26:02.397Z,6.70
2022-10-11T00:28:29.918Z,6.22
2022-10-11T00:30:56.970Z,6.38
2022-10-11T00:33:23.386Z,6.72
2022-10-11T00:35:50.011Z,6.72
2022-10-11T00:38:16.876Z,7.07
2022-10-11T00:40:44.067Z,6.50
2022-10-11T00:43:23.444Z,6.78
2022-10-11T00:46:22.593Z,5.57
2022-10-11T00:48:53.798Z,6.28
2022-10-11T00:51:37.347Z,6.13
2022-10-11T00:54:04.888Z,6.07
2022-10-11T00:56:35.239Z,5.35
2022-10-11T00:59:06.046Z,5.60
2022-10-11T01:01:32.774Z,5.85
2022-10-11T01:03:59.523Z,5.20
2022-10-11T01:06:26.045Z,5.00
2022-10-11T01:08:53.078Z,5.72
2022-10-11T01:11:22.944Z,5.82
2022-10-11T01:14:10.842Z,5.80
2022-10-11T01:17:15.746Z,6.05
2022-10-11T01:19:45.543Z,5.47
2022-10-11T01:22:33.378Z,5.95
2022-10-11T01:25:05.417Z,5.20
2022-10-11T01:27:53.729Z,4.72
2022-10-11T01:30:31.721Z,5.97
2022-10-11T01:33:16.565Z,5.18
2022-10-11T01:35:48.850Z,5.30
2022-10-11T01:38:30.590Z,5.43
2022-10-11T01:41:03.217Z,5.63
2022-10-11T01:43:30.458Z,5.03
2022-10-11T01:45:58.879Z,5.00
2022-10-11T01:48:25.410Z,6.20
2022-10-11T01:51:03.265Z,5.13
2022-10-11T01:54:07.129Z,5.32
2022-10-11T01:56:51.997Z,5.30
2022-10-11T01:59:49.602Z,5.03
2022-10-11T02:02:53.590Z,5.40
2022-10-11T02:05:31.267Z,5.65
2022-10-11T02:08:23.976Z,4.80
2022-10-11T02:11:15.483Z,5.50
2022-10-11T02:13:54.330Z,5.63
2022-10-11T02:16:26.929Z,5.75
2022-10-11T02:18:56.679Z,5.13
2022-10-11T02:21:23.763Z,5.30
2022-10-11T02:23:55.196Z,6.15
2022-10-11T02:26:24.866Z,4.75
2022-10-11T02:28:56.686Z,6.85
2022-10-11T02:31:25.046Z,5.53
2022-10-11T02:34:14.734Z,5.97
2022-10-11T02:37:04.015Z,6.22
2022-10-11T02:39:49.070Z,5.07
2022-10-11T02:42:26.413Z,5.25
2022-10-11T02:45:11.750Z,5.20
2022-10-11T02:47:38.441Z,5.50
2022-10-11T02:50:05.430Z,5.95
2022-10-11T02:52:31.843Z,5.50
2022-10-11T02:54:58.277Z,6.22
2022-10-11T02:57:24.707Z,5.50
2022-10-11T02:59:51.115Z,5.50
2022-10-11T03:02:17.541Z,4.88
2022-10-11T03:04:44.073Z,4.82
2022-10-11T03:07:10.495Z,5.30
2022-10-11T03:09:36.935Z,5.95
2022-10-11T03:12:03.542Z,6.10
2022-10-11T03:14:30.009Z,5.50
2022-10-11T03:17:00.734Z,5.07
2022-10-11T03:19:38.676Z,4.90
2022-10-11T03:22:05.170Z,5.47
2022-10-11T03:24:31.583Z,5.45
2022-10-11T03:26:58.039Z,5.32
2022-10-11T03:29:24.478Z,5.32
2022-10-11T03:31:50.932Z,5.30
2022-10-11T03:34:17.347Z,5.63
2022-10-11T03:36:43.786Z,7.57
2022-10-11T03:39:10.183Z,8.15
2022-10-11T03:41:36.574Z,7.90
2022-10-11T03:44:03.593Z,9.75
2022-10-11T03:46:30.109Z,9.05
2022-10-11T03:48:56.494Z,7.65
2022-10-11T03:51:22.871Z,9.00
2022-10-11T03:53:49.269Z,9.32
2022-10-11T03:56:16.350Z,10.38
2022-10-11T03:58:43.040Z,10.48
2022-10-11T04:01:09.606Z,11.02
2022-10-11T04:03:36.115Z,12.35
2022-10-11T04:06:03.055Z,12.18
2022-10-11T04:08:29.814Z,13.15
2022-10-11T04:10:56.248Z,13.48
2022-10-11T04:13:22.657Z,12.18
2022-10-11T04:15:49.079Z,12.57
2022-10-11T04:18:15.569Z,12.88
2022-10-11T04:20:42.706Z,11.05
2022-10-11T04:23:09.222Z,12.10
2022-10-11T04:25:38.385Z,12.10
2022-10-11T04:28:05.182Z,12.98
2022-10-11T04:30:31.580Z,11.20
2022-10-11T04:32:58.029Z,12.00
2022-10-11T04:35:24.446Z,9.90
2022-10-11T04:37:50.856Z,10.15
2022-10-11T04:40:17.391Z,9.75
2022-10-11T04:42:43.884Z,10.32
2022-10-11T04:45:10.527Z,10.40
2022-10-11T04:47:36.982Z,11.15
2022-10-11T04:50:03.981Z,9.75
2022-10-11T04:52:30.425Z,9.77
2022-10-11T04:54:56.870Z,10.32
2022-10-11T04:57:23.290Z,9.55
2022-10-11T04:59:50.384Z,9.27
2022-10-11T05:02:17.221Z,8.48
2022-10-11T05:04:43.734Z,9.02
2022-10-11T05:07:10.160Z,9.45
2022-10-11T05:09:36.564Z,10.18
2022-10-11T05:12:03.483Z,8.02
2022-10-11T05:14:30.041Z,8.88
2022-10-11T05:16:56.774Z,11.00
2022-10-11T05:19:23.364Z,8.98
2022-10-11T05:21:49.798Z,9.38
2022-10-11T05:24:16.267Z,10.23
2022-10-11T05:26:42.920Z,9.50
2022-10-11T05:29:09.300Z,9.15
2022-10-11T05:31:35.734Z,11.32
2022-10-11T05:34:02.141Z,12.93
2022-10-11T05:36:28.592Z,10.60
2022-10-11T05:38:55.042Z,10.50
2022-10-11T05:41:21.507Z,13.25
2022-10-11T05:43:47.978Z,17.92
2022-10-11T05:46:14.514Z,13.50
2022-10-11T05:48:41.120Z,10.90
2022-10-11T05:51:09.959Z,9.77
2022-10-11T05:53:37.852Z,9.02
2022-10-11T05:56:05.056Z,10.80
2022-10-11T05:58:31.844Z,10.50
2022-10-11T06:00:58.306Z,9.73
2022-10-11T06:03:24.813Z,9.55
2022-10-11T06:05:55.757Z,10.25
2022-10-11T06:08:23.312Z,11.10
2022-10-11T06:10:49.710Z,12.20
2022-10-11T06:13:16.185Z,8.73
2022-10-11T06:15:42.588Z,9.80
2022-10-11T06:18:09.050Z,9.98
2022-10-11T06:20:36.551Z,11.65
2022-10-11T06:23:02.953Z,11.18
2022-10-11T06:25:29.351Z,11.57
2022-10-11T06:27:55.996Z,12.57
2022-10-11T06:30:22.576Z,10.65
2022-10-11T06:32:48.973Z,11.93
2022-10-11T06:35:15.417Z,15.70
2022-10-11T06:37:41.855Z,10.43
2022-10-11T06:40:08.743Z,10.45
2022-10-11T06:42:35.150Z,10.88
2022-10-11T06:45:01.624Z,11.85
2022-10-11T06:47:28.026Z,13.30
2022-10-11T06:49:54.436Z,12.30
2022-10-11T06:52:20.845Z,13.43
2022-10-11T06:54:47.302Z,13.68
2022-10-11T06:57:13.863Z,13.13
2022-10-11T06:59:40.275Z,13.18
2022-10-11T07:02:06.924Z,14.77
2022-10-11T07:04:33.922Z,11.05
2022-10-11T07:07:00.703Z,12.35
2022-10-11T07:09:27.141Z,11.68
2022-10-11T07:11:53.790Z,11.60
2022-10-11T07:14:20.220Z,11.35
2022-10-11T07:16:46.681Z,12.95
2022-10-11T07:19:13.140Z,12.45
2022-10-11T07:21:39.595Z,12.35
2022-10-11T07:24:06.410Z,12.20
2022-10-11T07:26:38.890Z,12.40
2022-10-11T07:29:07.088Z,13.20
2022-10-11T07:31:33.592Z,13.25
2022-10-11T07:34:00.043Z,13.55
2022-10-11T07:36:26.470Z,14.07
2022-10-11T07:38:52.955Z,14.00
2022-10-11T07:41:19.872Z,14.93
2022-10-11T07:43:47.888Z,13.98
2022-10-11T07:46:14.605Z,15.77
2022-10-11T07:48:41.634Z,15.63
2022-10-11T07:51:14.381Z,15.35
2022-10-11T07:53:46.199Z,15.05
2022-10-11T07:56:14.671Z,16.08
2022-10-11T07:58:42.111Z,15.85
2022-10-11T08:01:10.454Z,15.95
2022-10-11T08:03:38.195Z,17.20
2022-10-11T08:06:07.912Z,17.10
2022-10-11T08:08:35.508Z,15.15
2022-10-11T08:11:02.068Z,16.73
2022-10-11T08:13:28.597Z,21.05
2022-10-11T08:15:55.216Z,20.13
2022-10-11T08:18:21.891Z,15.05
2022-10-11T08:20:48.980Z,16.25
2022-10-11T08:23:17.176Z,16.48
2022-10-11T08:25:47.043Z,15.80
2022-10-11T08:28:17.952Z,15.80
2022-10-11T08:30:49.748Z,14.25
2022-10-11T08:33:17.794Z,15.27
2022-10-11T08:35:44.597Z,15.27
2022-10-11T08:38:11.645Z,13.68
2022-10-11T08:40:38.778Z,16.33
2022-10-11T08:43:13.987Z,14.55
2022-10-11T08:45:50.449Z,12.88
2022-10-11T08:48:40.701Z,13.77
2022-10-11T08:51:27.689Z,12.13
2022-10-11T08:54:12.789Z,12.98
2022-10-11T08:56:41.813Z,12.63
2022-10-11T08:59:11.199Z,11.95
2022-10-11T09:01:44.693Z,11.40
2022-10-11T09:04:14.245Z,11.05
2022-10-11T09:07:03.949Z,12.77
2022-10-11T09:10:06.455Z,11.23
2022-10-11T09:13:02.258Z,9.98
2022-10-11T09:15:41.987Z,9.55
2022-10-11T09:18:20.437Z,9.77
2022-10-11T09:21:16.122Z,9.13
2022-10-11T09:24:11.666Z,8.32
2022-10-11T09:26:43.451Z,6.70
2022-10-11T09:29:20.505Z,4.75
2022-10-11T09:31:54.658Z,5.65
2022-10-11T09:34:25.325Z,6.05
2022-10-11T09:37:09.730Z,5.82
2022-10-11T09:39:50.915Z,4.45
2022-10-11T09:42:17.387Z,4.35
2022-10-11T09:44:50.555Z,5.60
2022-10-11T09:47:24.077Z,5.20
2022-10-11T09:49:56.603Z,5.18
2022-10-11T09:52:24.092Z,4.28
2022-10-11T09:54:54.994Z,3.63
2022-10-11T09:57:21.587Z,3.97
2022-10-11T10:00:21.976Z,4.28
2022-10-11T10:02:53.861Z,4.38
2022-10-11T10:05:25.400Z,3.30
2022-10-11T10:07:59.749Z,3.10
2022-10-11T10:10:43.228Z,3.28
2022-10-11T10:13:23.244Z,2.53
2022-10-11T10:15:59.123Z,2.88
2022-10-11T10:18:38.835Z,0.55
2022-10-11T10:21:11.331Z,2.95
2022-10-11T10:23:37.864Z,2.42
2022-10-11T10:26:20.544Z,4.05
2022-10-11T10:29:09.945Z,4.47
2022-10-11T10:31:55.370Z,2.47
2022-10-11T10:34:37.545Z,3.10
2022-10-11T10:37:08.518Z,4.00
2022-10-11T10:39:37.576Z,3.65
2022-10-11T10:42:10.000Z,2.85
2022-10-11T10:44:36.449Z,2.30
2022-10-11T10:47:28.821Z,2.90
2022-10-11T10:50:06.891Z,2.33
2022-10-11T10:52:47.709Z,2.33
2022-10-11T10:55:44.961Z,1.75
2022-10-11T10:58:45.201Z,2.67
2022-10-11T11:01:17.809Z,2.55
2022-10-11T11:03:51.867Z,1.98
2022-10-11T11:06:34.147Z,1.80
2022-10-11T11:09:17.709Z,2.88
2022-10-11T11:11:44.102Z,2.25
2022-10-11T11:14:18.328Z,1.20
2022-10-11T11:17:12.790Z,2.47
2022-10-11T11:19:59.786Z,2.15
2022-10-11T11:22:44.978Z,2.10
2022-10-11T11:25:49.976Z,2.75
2022-10-11T11:28:22.537Z,2.17
2022-10-11T11:30:52.055Z,2.45
2022-10-11T11:33:49.704Z,2.35
2022-10-11T11:36:39.420Z,2.40
2022-10-11T11:39:10.814Z,2.17
2022-10-11T11:41:44.009Z,2.50
2022-10-11T11:44:28.350Z,2.45
2022-10-11T11:47:08.887Z,3.63
2022-10-11T11:52:23.136Z,2.20
2022-10-11T11:55:16.936Z,2.47
2022-10-11T11:57:57.741Z,2.50
2022-10-11T12:00:30.916Z,2.65
2022-10-11T12:03:02.374Z,3.30
2022-10-11T12:05:32.960Z,2.70
2022-10-11T12:08:24.083Z,2.47
2022-10-11T12:10:50.469Z,2.78
2022-10-11T12:13:21.594Z,2.35
2022-10-11T12:16:05.933Z,1.90
2022-10-11T12:18:38.218Z,2.30
2022-10-11T12:21:18.903Z,1.92
2022-10-11T12:23:52.385Z,2.10
2022-10-11T12:26:28.006Z,2.35
2022-10-11T12:29:20.774Z,2.17
2022-10-11T12:31:58.820Z,2.35
2022-10-11T12:34:44.922Z,2.15
2022-10-11T12:37:17.520Z,1.70
2022-10-11T12:39:54.499Z,1.70
2022-10-11T12:42:32.928Z,1.95
2022-10-11T12:45:12.101Z,2.30
2022-10-11T12:48:05.872Z,2.60
2022-10-11T12:51:24.861Z,2.30
2022-10-11T12:54:27.330Z,2.53
2022-10-11T12:57:12.179Z,1.73
2022-10-11T12:59:45.236Z,1.63
2022-10-11T13:02:29.097Z,2.42
2022-10-11T13:05:08.142Z,2.20
2022-10-11T13:07:35.627Z,1.90
2022-10-11T13:10:04.965Z,2.03
2022-10-11T13:12:40.353Z,2.00
2022-10-11T13:15:12.978Z,2.08
2022-10-11T13:17:40.790Z,2.08
2022-10-11T13:20:07.171Z,1.75
2022-10-11T13:22:35.178Z,2.35
2022-10-11T13:25:05.559Z,2.83
2022-10-11T13:27:32.326Z,2.47
2022-10-11T13:30:02.296Z,2.00
2022-10-11T13:32:31.125Z,2.03
2022-10-11T13:35:02.311Z,1.88
2022-10-11T13:37:30.605Z,2.00
2022-10-11T13:39:57.631Z,2.38
2022-10-11T13:42:30.033Z,2.88
2022-10-11T13:44:57.260Z,1.77
2022-10-11T13:47:29.212Z,1.83
2022-10-11T13:50:07.863Z,2.97
2022-10-11T13:52:34.771Z,2.22
2022-10-11T13:55:04.176Z,2.03
2022-10-11T13:57:45.963Z,1.65
2022-10-11T14:00:15.188Z,2.47
2022-10-11T14:02:49.995Z,1.98
2022-10-11T14:07:58.556Z,2.35
2022-10-11T14:10:25.889Z,1.73
2022-10-11T14:13:29.552Z,1.67
2022-10-11T14:16:09.379Z,1.92
2022-10-11T14:18:41.589Z,1.90
2022-10-11T14:21:20.342Z,1.73
2022-10-11T14:23:50.441Z,2.10
2022-10-11T14:26:19.048Z,1.95
2022-10-11T14:28:49.126Z,1.90
2022-10-11T14:31:15.638Z,2.95
2022-10-11T14:33:42.163Z,1.90
2022-10-11T14:36:08.894Z,1.77
2022-10-11T14:38:35.553Z,1.75
2022-10-11T14:41:01.969Z,1.70
2022-10-11T14:43:28.385Z,1.88
2022-10-11T14:45:54.828Z,1.70
2022-10-11T14:48:43.030Z,1.77
2022-10-11T14:51:12.098Z,1.88
2022-10-11T14:53:41.994Z,1.98
2022-10-11T14:56:08.826Z,1.77
2022-10-11T14:58:35.388Z,2.10
2022-10-11T15:01:01.806Z,2.05
2022-10-11T15:03:28.258Z,2.00
2022-10-11T15:05:54.827Z,1.98
2022-10-11T15:08:21.284Z,2.35
2022-10-11T15:10:47.755Z,2.40
2022-10-11T15:13:14.295Z,1.83
2022-10-11T15:15:41.527Z,1.80
2022-10-11T15:18:12.614Z,2.08
2022-10-11T15:20:43.165Z,2.33
2022-10-11T15:23:10.126Z,2.70
2022-10-11T15:25:38.358Z,2.17
2022-10-11T15:28:06.068Z,2.30
2022-10-11T15:30:40.145Z,2.17
2022-10-11T15:33:08.489Z,2.55
2022-10-11T15:35:34.940Z,1.92
2022-10-11T15:38:01.363Z,2.35
2022-10-11T15:40:33.488Z,2.17
2022-10-11T15:43:00.409Z,2.65
2022-10-11T15:45:27.191Z,2.95
2022-10-11T15:47:53.691Z,2.78
2022-10-11T15:50:37.204Z,2.13
2022-10-11T15:53:06.866Z,2.13
2022-10-11T15:55:35.110Z,2.13
2022-10-11T15:58:01.862Z,2.70
2022-10-11T16:00:29.398Z,2.30
2022-10-11T16:02:57.517Z,2.00
2022-10-11T16:05:26.407Z,2.60
2022-10-11T16:07:53.537Z,2.63
2022-10-11T16:10:20.831Z,3.20
2022-10-11T16:12:47.358Z,3.53
2022-10-11T16:15:13.943Z,3.20
2022-10-11T16:17:40.390Z,2.70
2022-10-11T16:20:07.653Z,2.63
2022-10-11T16:22:35.190Z,3.85
2022-10-11T16:25:02.621Z,3.08
2022-10-11T16:27:29.156Z,2.25
2022-10-11T16:29:55.815Z,2.33
2022-10-11T16:32:23.151Z,2.08
2022-10-11T16:34:50.058Z,2.53
2022-10-11T16:37:16.748Z,2.53
2022-10-11T16:39:43.481Z,2.63
2022-10-11T16:42:09.945Z,2.67
2022-10-11T16:44:38.491Z,2.72
2022-10-11T16:47:06.264Z,2.30
2022-10-11T16:49:33.159Z,3.00
2022-10-11T16:52:00.669Z,3.13
2022-10-11T16:54:27.534Z,3.60
2022-10-11T16:56:54.268Z,3.13
2022-10-11T16:59:20.768Z,3.25
2022-10-11T17:01:47.332Z,5.00
2022-10-11T17:04:14.774Z,4.60
2022-10-11T17:06:43.713Z,3.90
2022-10-11T17:09:10.478Z,4.32
2022-10-11T17:11:36.985Z,3.22
2022-10-11T17:14:05.827Z,3.95
2022-10-11T17:16:32.413Z,9.13
2022-10-11T17:18:58.842Z,12.52
2022-10-11T17:21:25.282Z,7.50
2022-10-11T17:23:51.830Z,5.53
2022-10-11T17:26:22.102Z,6.05
2022-10-11T17:28:49.014Z,8.07
2022-10-11T17:31:15.561Z,6.63
2022-10-11T17:33:42.053Z,10.38
2022-10-11T17:36:16.377Z,11.63
2022-10-11T17:38:42.903Z,17.13
2022-10-11T17:41:10.311Z,17.90
2022-10-11T17:43:36.830Z,12.60
2022-10-11T17:46:05.958Z,11.85
2022-10-11T17:48:36.467Z,10.25
2022-10-11T17:51:11.561Z,7.93
2022-10-11T17:53:38.545Z,7.78
2022-10-11T17:56:07.750Z,14.20
2022-10-11T17:58:34.476Z,16.25
2022-10-11T18:01:13.626Z,19.20
2022-10-11T18:03:40.956Z,27.45
2022-10-11T18:06:10.008Z,16.05
2022-10-11T18:08:40.591Z,11.73
2022-10-11T18:11:12.557Z,10.63
2022-10-11T18:13:42.614Z,8.40
2022-10-11T18:16:09.935Z,10.93
2022-10-11T18:18:36.716Z,10.70
2022-10-11T18:21:03.704Z,7.85
2022-10-11T18:23:30.706Z,5.63
2022-10-11T18:25:57.271Z,7.45
2022-10-11T18:28:23.852Z,6.60
2022-10-11T18:30:50.537Z,6.20
2022-10-11T18:33:17.551Z,6.50
2022-10-11T18:35:43.981Z,6.10
2022-10-11T18:38:10.446Z,6.05
2022-10-11T18:40:41.323Z,7.22
2022-10-11T18:43:11.238Z,7.72
2022-10-11T18:45:37.635Z,6.15
2022-10-11T18:48:04.292Z,4.43
2022-10-11T18:50:34.853Z,5.22
2022-10-11T18:53:01.925Z,6.97
2022-10-11T18:55:28.469Z,8.32
2022-10-11T18:57:54.919Z,8.23
2022-10-11T19:00:40.227Z,9.65
2022-10-11T19:03:07.874Z,5.28
2022-10-11T19:05:34.382Z,4.32
2022-10-11T19:08:00.819Z,7.80
2022-10-11T19:10:27.319Z,24.52
2022-10-11T19:12:53.755Z,18.75
2022-10-11T19:15:20.170Z,23.25
2022-10-11T19:17:46.627Z,22.23
2022-10-11T19:20:13.118Z,18.77
2022-10-11T19:22:39.586Z,29.65
2022-10-11T19:25:06.594Z,20.75
2022-10-11T19:27:33.004Z,17.77
2022-10-11T19:30:00.341Z,11.35
2022-10-11T19:32:26.935Z,12.00
2022-10-11T19:34:53.387Z,16.05
2022-10-11T19:37:19.900Z,29.20
2022-10-11T19:39:46.377Z,24.52
2022-10-11T19:42:12.770Z,18.80
2022-10-11T19:44:39.818Z,13.75
2022-10-11T19:47:06.579Z,12.15
2022-10-11T19:49:33.088Z,9.32
2022-10-11T19:52:01.009Z,6.63
2022-10-11T19:54:27.941Z,7.63
2022-10-11T19:56:54.481Z,14.57
2022-10-11T19:59:21.157Z,16.35
2022-10-11T20:01:52.449Z,21.65
2022-10-11T20:04:51.247Z,50.00
2022-10-11T20:07:07.163Z,23.63
2022-10-11T20:09:33.736Z,17.98
2022-10-11T20:12:00.175Z,79.65
2022-10-11T20:14:26.699Z,18.27
2022-10-11T20:16:53.189Z,15.05
2022-10-11T20:19:20.055Z,13.35
2022-10-11T20:21:47.499Z,15.50
2022-10-11T20:24:13.996Z,18.90
2022-10-11T20:26:40.403Z,15.73
2022-10-11T20:29:06.871Z,22.40
2022-10-11T20:31:35.130Z,15.57
2022-10-11T20:34:04.178Z,10.18
2022-10-11T20:36:31.998Z,9.13
2022-10-11T20:38:59.315Z,8.98
2022-10-11T20:41:28.615Z,8.48
2022-10-11T20:43:56.909Z,7.22
2022-10-11T20:46:26.767Z,8.82
2022-10-11T20:49:00.413Z,9.10
2022-10-11T20:51:28.793Z,11.97
2022-10-11T20:53:56.328Z,10.40
2022-10-11T20:56:23.601Z,9.10
2022-10-11T20:58:52.529Z,10.38
2022-10-11T21:01:21.482Z,8.27
2022-10-11T21:03:48.166Z,8.13
2022-10-11T21:06:14.651Z,7.45
2022-10-11T21:08:41.580Z,7.22
2022-10-11T21:11:08.442Z,7.05
2022-10-11T21:13:35.681Z,8.00
2022-10-11T21:16:07.923Z,7.53
2022-10-11T21:18:34.421Z,8.57
2022-10-11T21:21:07.995Z,8.15
2022-10-11T21:23:35.109Z,6.90
2022-10-11T21:26:06.403Z,7.40
2022-10-11T21:28:33.674Z,7.53
2022-10-11T21:31:05.268Z,6.70
2022-10-11T21:33:32.804Z,8.25
2022-10-11T21:36:00.080Z,6.63
2022-10-11T21:38:26.516Z,7.72
2022-10-11T21:40:52.939Z,10.15
2022-10-11T21:43:19.367Z,16.98
2022-10-11T21:45:46.061Z,9.98
2022-10-11T21:48:12.496Z,8.38
2022-10-11T21:50:38.901Z,8.45
2022-10-11T21:53:05.321Z,8.10
2022-10-11T21:55:31.762Z,7.65
2022-10-11T21:57:58.210Z,8.20
2022-10-11T22:00:24.601Z,10.20
2022-10-11T22:02:52.787Z,8.98
2022-10-11T22:05:19.276Z,8.50
2022-10-11T22:07:46.819Z,10.98
2022-10-11T22:10:13.265Z,10.25
2022-10-11T22:12:39.684Z,10.25
2022-10-11T22:15:06.822Z,9.27
2022-10-11T22:17:33.267Z,7.90
2022-10-11T22:20:00.160Z,7.47
2022-10-11T22:22:26.612Z,7.63
2022-10-11T22:24:53.086Z,8.55
2022-10-11T22:27:19.530Z,7.70
2022-10-11T22:29:45.942Z,7.97
2022-10-11T22:32:12.378Z,9.27
2022-10-11T22:34:38.815Z,10.25
2022-10-11T22:37:05.238Z,8.93
2022-10-11T22:39:31.662Z,9.40
2022-10-11T22:41:58.062Z,8.65
2022-10-11T22:44:24.531Z,8.65
2022-10-11T22:46:50.974Z,8.95
2022-10-11T22:49:17.399Z,8.13
2022-10-11T22:51:44.483Z,8.25
2022-10-11T22:54:11.249Z,8.55
2022-10-11T22:56:37.678Z,9.43
2022-10-11T22:59:04.476Z,15.82
2022-10-11T23:01:30.892Z,14.35
2022-10-11T23:03:57.460Z,16.55
2022-10-11T23:06:23.921Z,14.25
2022-10-11T23:08:50.367Z,14.27
2022-10-11T23:11:16.890Z,14.30
2022-10-11T23:13:43.375Z,13.25
2022-10-11T23:16:11.138Z,14.77
2022-10-11T23:18:38.260Z,9.77
2022-10-11T23:21:06.036Z,15.82
2022-10-11T23:23:33.206Z,14.48
2022-10-11T23:26:04.737Z,13.85
2022-10-11T23:28:31.315Z,14.60
2022-10-11T23:30:57.814Z,17.63
2022-10-11T23:33:24.535Z,12.40
2022-10-11T23:35:51.016Z,10.43
2022-10-11T23:38:17.478Z,10.32
2022-10-11T23:40:43.907Z,9.85
2022-10-11T23:43:10.358Z,9.23
2022-10-11T23:45:36.755Z,10.27
2022-10-11T23:48:03.603Z,10.27
2022-10-11T23:50:30.048Z,9.07
2022-10-11T23:52:57.077Z,7.70
2022-10-11T23:55:23.517Z,8.43
2022-10-11T23:57:49.928Z,8.35
